Time;durP1;ratioP1;P1;durP2;ratioP2;P2;SDS_P1;SDS_P2;PMS_P1;PMS_P2;Temp;Humidity;BMP_temperature;BMP_pressure;BME280_temperature;BME280_humidity;BME280_pressure;Samples;Min_cycle;Max_cycle;Signal;HPM_P1;HPM_P2
2024/01/22 00:01:43;;;;;;;10.45;5.53;;;;;;;1.41;95.66;98831.00;5061206;28;20047;-75
2024/01/22 00:04:10;;;;;;;9.05;5.40;;;;;;;1.42;96.44;98817.66;5058666;28;20021;-76
2024/01/22 00:06:42;;;;;;;8.45;5.28;;;;;;;1.49;96.60;98799.28;5066331;28;20020;-76
2024/01/22 00:09:07;;;;;;;5.20;3.90;;;;;;;1.48;97.21;98790.59;5076030;28;20485;-76
2024/01/22 00:11:32;;;;;;;8.65;5.00;;;;;;;1.49;96.64;98778.25;5073797;28;20083;-76
2024/01/22 00:13:59;;;;;;;6.80;4.88;;;;;;;1.45;96.85;98769.13;5072189;28;20084;-76
2024/01/22 00:16:24;;;;;;;9.35;4.78;;;;;;;1.49;96.69;98744.88;5070086;28;20107;-77
2024/01/22 00:18:50;;;;;;;10.65;4.78;;;;;;;1.48;97.48;98731.94;5065554;28;20092;-76
2024/01/22 00:21:16;;;;;;;6.07;3.95;;;;;;;1.55;97.19;98729.34;5059903;28;20123;-76
2024/01/22 00:23:41;;;;;;;7.63;3.33;;;;;;;1.58;97.37;98739.47;5057862;28;20036;-77
2024/01/22 00:26:06;;;;;;;13.07;4.65;;;;;;;1.56;97.19;98759.88;5069542;28;20024;-76
2024/01/22 00:28:32;;;;;;;14.98;4.95;;;;;;;1.66;97.33;98742.75;5066148;28;20063;-76
2024/01/22 00:30:57;;;;;;;9.00;5.28;;;;;;;1.63;97.27;98737.06;5066807;28;20024;-76
2024/01/22 00:33:22;;;;;;;7.22;3.20;;;;;;;1.64;97.85;98700.03;5055276;28;20037;-77
2024/01/22 00:35:48;;;;;;;5.15;3.70;;;;;;;1.63;97.99;98698.44;5061963;28;20020;-77
2024/01/22 00:38:13;;;;;;;14.25;5.05;;;;;;;1.73;98.40;98663.84;5061350;28;20032;-76
2024/01/22 00:40:38;;;;;;;14.57;4.95;;;;;;;1.77;98.35;98662.47;5063743;28;20052;-75
2024/01/22 00:43:04;;;;;;;19.33;6.80;;;;;;;1.75;98.11;98678.44;5061758;28;20040;-76
2024/01/22 00:45:30;;;;;;;4.35;3.33;;;;;;;1.73;97.54;98669.13;5070333;28;20024;-75
2024/01/22 00:47:56;;;;;;;8.00;4.75;;;;;;;1.77;97.69;98670.38;5075724;28;20103;-75
2024/01/22 00:50:21;;;;;;;13.18;5.22;;;;;;;1.74;97.69;98663.69;5057816;28;20031;-75
2024/01/22 00:52:46;;;;;;;8.68;3.92;;;;;;;1.84;97.65;98650.94;5062383;28;20024;-75
2024/01/22 00:55:12;;;;;;;10.88;5.53;;;;;;;1.76;97.63;98666.94;5065413;28;20027;-74
2024/01/22 00:57:38;;;;;;;6.78;4.15;;;;;;;1.79;98.02;98642.84;5064659;28;20385;-75
2024/01/22 01:00:05;;;;;;;7.50;4.30;;;;;;;1.80;97.94;98660.25;5066013;28;20057;-76
2024/01/22 01:02:30;;;;;;;5.18;2.72;;;;;;;1.92;98.22;98653.41;5068129;28;20039;-75
2024/01/22 01:04:55;;;;;;;8.43;4.25;;;;;;;1.91;97.75;98650.97;5069243;28;20032;-74
2024/01/22 01:07:21;;;;;;;11.80;3.97;;;;;;;1.96;98.13;98627.53;5058072;28;20064;-75
2024/01/22 01:09:47;;;;;;;7.07;3.67;;;;;;;1.96;98.08;98601.19;5063414;28;20111;-75
2024/01/22 01:12:12;;;;;;;10.27;3.75;;;;;;;1.92;97.83;98584.19;5055249;28;20056;-75
2024/01/22 01:14:37;;;;;;;8.10;3.72;;;;;;;1.94;97.84;98590.06;5063359;28;20322;-76
2024/01/22 01:17:03;;;;;;;11.65;4.93;;;;;;;2.02;98.11;98579.34;5065963;28;20039;-75
2024/01/22 01:19:28;;;;;;;6.18;3.03;;;;;;;2.07;98.05;98598.81;5062017;28;20030;-75
2024/01/22 01:21:53;;;;;;;4.47;3.25;;;;;;;2.06;97.92;98617.41;5069898;28;20042;-75
2024/01/22 01:24:19;;;;;;;5.10;4.00;;;;;;;2.14;98.16;98635.66;5064562;28;20035;-75
2024/01/22 01:26:44;;;;;;;11.93;3.60;;;;;;;2.15;97.83;98634.63;5063207;28;20029;-76
2024/01/22 01:29:10;;;;;;;10.20;4.00;;;;;;;2.06;97.80;98631.38;5075846;28;20032;-76
2024/01/22 01:31:36;;;;;;;8.73;4.82;;;;;;;2.07;97.36;98619.84;5057622;28;20432;-76
2024/01/22 01:34:01;;;;;;;9.15;4.85;;;;;;;2.16;97.59;98609.94;5059724;28;20501;-74
2024/01/22 01:36:26;;;;;;;5.50;2.63;;;;;;;2.08;97.07;98587.25;5060361;28;20409;-76
2024/01/22 01:38:52;;;;;;;3.70;3.20;;;;;;;2.20;97.64;98613.78;5060471;28;20028;-76
2024/01/22 01:41:17;;;;;;;6.07;4.53;;;;;;;2.16;97.51;98610.72;5060062;28;20082;-75
2024/01/22 01:43:42;;;;;;;7.28;4.00;;;;;;;2.21;97.89;98650.44;5057899;28;20508;-76
2024/01/22 01:46:08;;;;;;;6.68;3.72;;;;;;;2.29;97.74;98592.31;5068318;28;20078;-76
2024/01/22 01:48:33;;;;;;;4.75;3.58;;;;;;;2.29;97.39;98594.16;5060070;28;20105;-76
2024/01/22 01:51:00;;;;;;;14.68;6.07;;;;;;;2.18;98.15;98557.91;5062709;28;20040;-74
2024/01/22 01:53:26;;;;;;;8.20;4.03;;;;;;;2.24;97.86;98586.06;5070930;28;20028;-75
2024/01/22 01:55:52;;;;;;;5.50;3.35;;;;;;;2.30;98.00;98558.91;5068016;28;20077;-75
2024/01/22 01:58:22;;;;;;;13.00;5.65;;;;;;;2.26;97.66;98557.69;5064054;28;20032;-75
2024/01/22 02:00:51;;;;;;;11.23;5.68;;;;;;;2.35;97.92;98531.97;5043242;28;20029;-75
2024/01/22 02:03:17;;;;;;;10.80;5.35;;;;;;;2.34;98.23;98520.63;5059601;28;20033;-75
2024/01/22 02:05:43;;;;;;;9.70;5.20;;;;;;;2.34;98.13;98541.69;5063252;28;20039;-75
2024/01/22 02:08:08;;;;;;;8.57;4.32;;;;;;;2.37;97.46;98522.03;5076239;28;20047;-75
2024/01/22 02:10:33;;;;;;;8.40;3.72;;;;;;;2.39;97.92;98533.19;5065054;28;20029;-75
2024/01/22 02:13:01;;;;;;;7.03;4.20;;;;;;;2.36;97.92;98518.59;5059996;28;20477;-75
2024/01/22 02:15:27;;;;;;;4.07;2.65;;;;;;;2.43;97.51;98489.63;5063815;28;20071;-75
2024/01/22 02:17:52;;;;;;;13.98;5.45;;;;;;;2.40;97.73;98511.09;5062806;28;20510;-75
2024/01/22 02:20:17;;;;;;;8.50;4.63;;;;;;;2.43;97.49;98487.78;5068432;28;20033;-75
2024/01/22 02:22:43;;;;;;;7.85;5.85;;;;;;;2.46;97.65;98471.59;5057855;28;20109;-75
2024/01/22 02:25:08;;;;;;;7.22;4.35;;;;;;;2.47;97.48;98482.94;5039631;28;20524;-75
2024/01/22 02:27:33;;;;;;;4.95;4.25;;;;;;;2.51;97.27;98478.88;5060951;28;20025;-75
2024/01/22 02:29:59;;;;;;;9.57;4.72;;;;;;;2.49;96.58;98473.78;5065686;28;20032;-75
2024/01/22 02:32:24;;;;;;;10.70;4.68;;;;;;;2.49;97.15;98468.53;5058232;28;20029;-75
2024/01/22 02:34:49;;;;;;;14.25;5.22;;;;;;;2.52;96.70;98457.59;5061737;28;20397;-75
2024/01/22 02:37:15;;;;;;;11.13;4.70;;;;;;;2.48;96.65;98451.13;5072386;28;20032;-75
2024/01/22 02:39:41;;;;;;;8.70;3.90;;;;;;;2.56;96.75;98445.63;5064164;28;20036;-75
2024/01/22 02:42:06;;;;;;;7.13;4.13;;;;;;;2.59;97.34;98436.50;5067240;28;20453;-74
2024/01/22 02:44:34;;;;;;;8.68;4.55;;;;;;;2.55;96.51;98438.75;5065194;28;20029;-75
2024/01/22 02:47:00;;;;;;;10.57;4.20;;;;;;;2.63;96.83;98414.81;5067549;28;20070;-75
2024/01/22 02:49:27;;;;;;;8.40;4.00;;;;;;;2.65;96.32;98428.56;5067297;28;20032;-75
2024/01/22 02:51:52;;;;;;;8.90;4.05;;;;;;;2.65;96.20;98418.03;5066779;28;20031;-75
2024/01/22 02:54:17;;;;;;;14.05;4.25;;;;;;;2.72;96.97;98412.75;5062981;28;20111;-75
2024/01/22 02:56:43;;;;;;;6.43;3.95;;;;;;;2.72;96.60;98383.75;5055500;28;20036;-75
2024/01/22 02:59:08;;;;;;;10.60;3.95;;;;;;;2.70;96.74;98368.19;5068256;28;20077;-75
2024/01/22 03:01:33;;;;;;;10.63;6.18;;;;;;;2.72;96.23;98384.56;5067407;28;20051;-75
2024/01/22 03:03:59;;;;;;;8.48;4.70;;;;;;;2.81;96.25;98407.03;5053019;28;20401;-76
2024/01/22 03:06:24;;;;;;;8.13;3.00;;;;;;;2.84;95.81;98426.91;5072599;28;20116;-76
2024/01/22 03:08:49;;;;;;;6.00;3.72;;;;;;;2.88;95.85;98407.78;5060660;28;20405;-74
2024/01/22 03:11:15;;;;;;;6.38;3.92;;;;;;;2.91;95.65;98402.13;5072757;28;20028;-75
2024/01/22 03:13:40;;;;;;;7.57;3.20;;;;;;;2.90;95.96;98399.69;5060724;28;20051;-75
2024/01/22 03:16:06;;;;;;;6.70;4.03;;;;;;;2.96;95.74;98373.31;5057561;28;20039;-75
2024/01/22 03:18:32;;;;;;;7.10;2.97;;;;;;;3.01;96.02;98384.00;5065360;28;20033;-75
2024/01/22 03:20:57;;;;;;;8.93;2.90;;;;;;;3.00;95.51;98379.78;5063982;28;20381;-75
2024/01/22 03:23:22;;;;;;;7.50;2.75;;;;;;;3.03;95.44;98360.09;5072972;28;20531;-76
2024/01/22 03:25:48;;;;;;;7.90;4.10;;;;;;;3.01;95.81;98359.50;5064849;28;20558;-76
2024/01/22 03:28:13;;;;;;;8.68;2.97;;;;;;;3.04;95.23;98359.06;5061134;28;20398;-75
2024/01/22 03:30:38;;;;;;;6.90;3.25;;;;;;;3.10;94.89;98349.50;5065363;28;20036;-76
2024/01/22 03:33:04;;;;;;;4.50;3.70;;;;;;;3.09;95.07;98339.97;5066684;28;20032;-75
2024/01/22 03:35:29;;;;;;;7.13;3.05;;;;;;;3.08;94.90;98344.41;5061946;28;20131;-75
2024/01/22 03:37:54;;;;;;;6.45;3.40;;;;;;;3.06;95.08;98327.22;5069262;28;20367;-75
2024/01/22 03:40:20;;;;;;;5.03;3.17;;;;;;;3.15;95.06;98302.19;5064129;28;20063;-74
2024/01/22 03:42:45;;;;;;;3.45;2.45;;;;;;;3.18;94.53;98333.41;5061050;28;20068;-76
2024/01/22 03:45:10;;;;;;;5.28;3.40;;;;;;;3.14;94.08;98333.06;5067656;28;20118;-74
2024/01/22 03:47:36;;;;;;;4.15;2.75;;;;;;;3.21;94.77;98322.47;5067058;28;20119;-75
2024/01/22 03:50:03;;;;;;;3.75;2.30;;;;;;;3.22;94.45;98310.88;5067305;28;20044;-75
2024/01/22 03:52:28;;;;;;;7.88;2.55;;;;;;;3.32;93.92;98300.66;5059745;28;20087;-75
2024/01/22 03:54:55;;;;;;;3.00;2.63;;;;;;;3.19;94.20;98293.66;5063605;28;20044;-75
2024/01/22 03:57:20;;;;;;;5.88;2.72;;;;;;;3.22;93.91;98302.97;5060739;28;20028;-75
2024/01/22 03:59:46;;;;;;;6.43;2.75;;;;;;;3.33;94.28;98294.34;5072164;28;20504;-75
2024/01/22 04:02:12;;;;;;;4.25;3.00;;;;;;;3.29;94.05;98264.97;5068158;28;20040;-75
2024/01/22 04:04:37;;;;;;;7.90;2.95;;;;;;;3.34;93.38;98266.97;5072383;28;20024;-76
2024/01/22 04:07:03;;;;;;;4.97;2.60;;;;;;;3.37;93.39;98242.78;5061406;28;20051;-76
2024/01/22 04:09:28;;;;;;;2.80;2.50;;;;;;;3.31;93.22;98219.91;5058492;28;20111;-76
2024/01/22 04:11:53;;;;;;;4.18;2.10;;;;;;;3.35;93.20;98221.09;5067622;28;20060;-75
2024/01/22 04:14:19;;;;;;;2.25;1.98;;;;;;;3.35;93.14;98214.00;5063205;28;20037;-75
2024/01/22 04:16:44;;;;;;;6.85;3.85;;;;;;;3.33;93.13;98200.22;5068731;28;20054;-75
2024/01/22 04:19:10;;;;;;;3.42;1.92;;;;;;;3.43;93.42;98199.72;5070197;28;20061;-75
2024/01/22 04:21:44;;;;;;;9.52;2.75;;;;;;;3.47;93.08;98203.53;5057469;28;20029;-75
2024/01/22 04:24:09;;;;;;;7.65;3.03;;;;;;;3.50;93.02;98195.16;5062686;28;20067;-75
2024/01/22 04:26:35;;;;;;;3.85;2.85;;;;;;;3.57;93.30;98190.63;5065692;28;20052;-75
2024/01/22 04:29:00;;;;;;;2.90;2.22;;;;;;;3.52;93.12;98178.09;5069133;28;20028;-75
2024/01/22 04:31:25;;;;;;;7.72;2.42;;;;;;;3.55;92.62;98184.78;5063572;28;20031;-75
2024/01/22 04:33:51;;;;;;;7.72;2.55;;;;;;;3.64;92.43;98175.53;5058813;28;20028;-75
2024/01/22 04:36:16;;;;;;;10.15;2.58;;;;;;;3.60;91.98;98164.59;5058554;28;20768;-74
2024/01/22 04:38:42;;;;;;;5.57;3.08;;;;;;;3.58;92.18;98157.97;5043845;28;20449;-75
2024/01/22 04:41:07;;;;;;;5.57;3.00;;;;;;;3.60;93.23;98169.09;5068007;28;20028;-74
2024/01/22 04:43:32;;;;;;;2.10;1.90;;;;;;;3.72;92.60;98183.16;5059313;28;20421;-75
2024/01/22 04:45:58;;;;;;;3.33;2.38;;;;;;;3.69;92.25;98165.16;5057316;28;20409;-75
2024/01/22 04:48:24;;;;;;;3.00;2.55;;;;;;;3.74;92.71;98171.34;5057492;28;20036;-75
2024/01/22 04:50:49;;;;;;;5.20;2.08;;;;;;;3.73;91.87;98182.16;5069011;28;20473;-75
2024/01/22 04:53:15;;;;;;;6.10;2.53;;;;;;;3.69;92.63;98187.03;5037411;28;20044;-75
2024/01/22 04:55:40;;;;;;;3.35;1.80;;;;;;;3.78;92.60;98177.81;5061438;28;20043;-75
2024/01/22 04:58:06;;;;;;;2.67;1.90;;;;;;;3.76;92.19;98150.00;5056615;28;20031;-75
2024/01/22 05:00:31;;;;;;;5.78;2.90;;;;;;;3.79;92.88;98178.63;5064656;28;20035;-76
2024/01/22 05:02:57;;;;;;;3.20;2.40;;;;;;;3.77;93.11;98149.00;5064954;28;20161;-76
2024/01/22 05:05:22;;;;;;;6.25;2.13;;;;;;;3.80;92.78;98167.00;5066576;28;20035;-75
2024/01/22 05:07:48;;;;;;;4.55;2.72;;;;;;;3.82;92.60;98175.53;5067673;28;20033;-74
2024/01/22 05:10:14;;;;;;;4.10;2.67;;;;;;;3.80;92.50;98159.91;5038065;28;20128;-75
2024/01/22 05:12:40;;;;;;;3.45;2.20;;;;;;;3.82;92.84;98146.50;5062190;28;20497;-75
2024/01/22 05:15:06;;;;;;;7.30;2.20;;;;;;;3.82;92.79;98149.16;5070820;28;20024;-75
2024/01/22 05:17:32;;;;;;;2.85;2.10;;;;;;;3.85;92.67;98161.88;5067767;28;20067;-75
2024/01/22 05:19:59;;;;;;;2.38;1.70;;;;;;;3.93;92.64;98135.19;5058562;28;20056;-74
2024/01/22 05:22:25;;;;;;;2.42;2.10;;;;;;;3.90;92.34;98164.69;5070455;28;20024;-74
2024/01/22 05:24:50;;;;;;;6.25;2.47;;;;;;;3.89;92.79;98180.75;5057105;28;20489;-75
2024/01/22 05:27:16;;;;;;;3.47;2.40;;;;;;;3.87;92.87;98180.94;5059863;28;20037;-74
2024/01/22 05:29:42;;;;;;;2.80;2.30;;;;;;;3.95;92.46;98195.69;5054815;28;20078;-74
2024/01/22 05:32:07;;;;;;;4.40;2.22;;;;;;;3.90;92.48;98211.38;5066833;28;20519;-74
2024/01/22 05:34:33;;;;;;;4.47;2.60;;;;;;;3.95;92.34;98209.69;5061925;28;20108;-74
2024/01/22 05:36:58;;;;;;;4.60;2.22;;;;;;;3.93;92.47;98205.66;5062657;28;20090;-75
2024/01/22 05:39:23;;;;;;;2.58;1.92;;;;;;;3.95;92.18;98191.22;5063353;28;20068;-75
2024/01/22 05:41:49;;;;;;;1.67;1.55;;;;;;;3.95;92.59;98180.66;5058000;28;20032;-75
2024/01/22 05:44:14;;;;;;;3.00;2.10;;;;;;;3.99;92.22;98178.38;5065110;28;20043;-74
2024/01/22 05:46:39;;;;;;;5.00;2.65;;;;;;;3.98;92.05;98172.28;5063120;28;20036;-75
2024/01/22 05:49:05;;;;;;;4.57;2.58;;;;;;;3.96;92.66;98161.13;5064841;28;20057;-74
2024/01/22 05:51:31;;;;;;;3.97;2.47;;;;;;;4.03;92.28;98177.69;5067339;28;20701;-74
2024/01/22 05:53:56;;;;;;;5.25;2.60;;;;;;;3.96;92.15;98176.16;5065557;28;20037;-74
2024/01/22 05:56:26;;;;;;;6.53;3.08;;;;;;;3.99;92.31;98176.53;5056751;28;20032;-75
2024/01/22 05:58:53;;;;;;;6.22;3.30;;;;;;;3.96;92.02;98184.09;5061848;28;20033;-75
2024/01/22 06:01:20;;;;;;;7.35;3.00;;;;;;;3.96;91.96;98173.53;5068857;28;20024;-75
2024/01/22 06:03:45;;;;;;;8.55;3.25;;;;;;;3.88;92.25;98166.72;5059600;28;20368;-75
2024/01/22 06:06:10;;;;;;;4.88;2.67;;;;;;;3.96;92.77;98179.63;5056617;28;20112;-75
2024/01/22 06:08:36;;;;;;;3.60;2.20;;;;;;;3.92;92.42;98173.16;5059242;28;20501;-75
2024/01/22 06:11:04;;;;;;;4.50;3.15;;;;;;;3.92;92.68;98164.44;5054636;28;20595;-75
2024/01/22 06:13:31;;;;;;;5.55;2.50;;;;;;;3.86;92.50;98163.50;5063373;28;20094;-74
2024/01/22 06:15:56;;;;;;;3.42;2.35;;;;;;;3.89;91.97;98152.50;5042961;28;20068;-75
2024/01/22 06:18:22;;;;;;;5.82;3.40;;;;;;;3.84;92.85;98152.38;5057874;28;20055;-75
2024/01/22 06:20:47;;;;;;;7.13;3.25;;;;;;;3.83;94.21;98156.03;5066829;28;20115;-76
2024/01/22 06:23:12;;;;;;;4.63;3.25;;;;;;;3.80;95.28;98130.06;5055119;28;20032;-75
2024/01/22 06:25:38;;;;;;;5.80;2.60;;;;;;;3.73;95.95;98132.78;5058978;28;20040;-76
2024/01/22 06:28:03;;;;;;;5.82;3.15;;;;;;;3.70;96.33;98119.25;5042349;28;20025;-75
2024/01/22 06:30:29;;;;;;;3.58;3.00;;;;;;;3.67;96.88;98119.69;5062651;28;20029;-76
2024/01/22 06:32:54;;;;;;;3.35;2.63;;;;;;;3.65;97.19;98106.72;5061458;28;20028;-75
2024/01/22 06:35:19;;;;;;;4.63;3.25;;;;;;;3.63;96.73;98100.84;5063402;28;20036;-76
2024/01/22 06:37:45;;;;;;;7.65;2.13;;;;;;;3.63;97.12;98118.50;5057936;28;20033;-75
2024/01/22 06:40:11;;;;;;;6.32;3.47;;;;;;;3.66;96.67;98104.88;5061049;28;20032;-76
2024/01/22 06:42:36;;;;;;;4.20;2.92;;;;;;;3.63;97.54;98105.31;5054344;28;20033;-76
2024/01/22 06:45:01;;;;;;;5.40;3.17;;;;;;;3.58;96.96;98090.16;5062093;28;20029;-76
2024/01/22 06:47:29;;;;;;;3.25;2.67;;;;;;;3.55;97.74;98109.09;5070970;28;20039;-76
2024/01/22 06:49:55;;;;;;;3.55;2.53;;;;;;;3.55;97.31;98108.28;5059036;28;20033;-75
2024/01/22 06:52:20;;;;;;;3.53;2.58;;;;;;;3.56;97.72;98104.63;5060706;28;20029;-76
2024/01/22 06:54:45;;;;;;;7.85;3.22;;;;;;;3.53;97.64;98128.78;5070314;28;20036;-75
2024/01/22 06:57:11;;;;;;;1.50;1.20;;;;;;;3.54;98.31;98099.53;5059438;28;20033;-76
2024/01/22 06:59:36;;;;;;;7.10;2.95;;;;;;;3.54;97.85;98096.09;5068513;28;20024;-76
2024/01/22 07:02:02;;;;;;;5.35;2.60;;;;;;;3.53;98.56;98095.31;5056353;28;20431;-75
2024/01/22 07:04:27;;;;;;;4.88;3.03;;;;;;;3.58;98.07;98108.63;5065633;28;20390;-75
2024/01/22 07:06:52;;;;;;;6.10;3.42;;;;;;;3.52;98.22;98098.16;5066951;28;20371;-75
2024/01/22 07:09:18;;;;;;;5.35;3.13;;;;;;;3.54;98.75;98088.19;5068644;28;20025;-76
2024/01/22 07:11:43;;;;;;;2.80;2.45;;;;;;;3.59;98.51;98085.69;5062449;28;20029;-76
2024/01/22 07:14:09;;;;;;;5.07;2.35;;;;;;;3.55;99.00;98111.72;5063874;28;20033;-76
2024/01/22 07:16:34;;;;;;;5.53;3.30;;;;;;;3.55;99.54;98087.97;5062414;28;20031;-75
2024/01/22 07:18:59;;;;;;;5.03;2.53;;;;;;;3.57;98.99;98095.66;5060208;28;20072;-76
2024/01/22 07:21:25;;;;;;;3.47;2.90;;;;;;;3.55;99.45;98079.25;5065033;28;20055;-75
2024/01/22 07:23:50;;;;;;;5.28;2.42;;;;;;;3.60;99.10;98074.13;5054839;28;20167;-76
2024/01/22 07:26:15;;;;;;;4.78;2.47;;;;;;;3.62;99.91;98112.47;5055561;28;20039;-75
2024/01/22 07:28:41;;;;;;;4.93;2.33;;;;;;;3.62;99.46;98091.34;5063676;28;20021;-75
2024/01/22 07:31:06;;;;;;;6.35;2.97;;;;;;;3.67;99.76;98101.22;5061672;28;20035;-75
2024/01/22 07:33:32;;;;;;;3.53;2.35;;;;;;;3.69;99.56;98109.72;5060186;28;20021;-75
2024/01/22 07:35:57;;;;;;;4.18;2.40;;;;;;;3.69;99.85;98109.72;5065062;28;20527;-75
2024/01/22 07:38:23;;;;;;;5.60;2.40;;;;;;;3.67;99.81;98093.28;5063375;28;20028;-75
2024/01/22 07:40:48;;;;;;;1.83;1.67;;;;;;;3.72;99.84;98098.72;5067226;28;20031;-76
2024/01/22 07:43:14;;;;;;;6.13;2.97;;;;;;;3.69;100.00;98093.91;5065216;28;20028;-75
2024/01/22 07:45:39;;;;;;;3.60;2.45;;;;;;;3.69;100.00;98096.53;5064230;28;20044;-75
2024/01/22 07:48:05;;;;;;;5.03;2.38;;;;;;;3.76;99.39;98107.78;5061889;28;20024;-75
2024/01/22 07:50:30;;;;;;;4.35;2.72;;;;;;;3.80;99.36;98101.84;5065975;28;20044;-75
2024/01/22 07:52:55;;;;;;;5.72;2.97;;;;;;;3.80;98.89;98101.03;5060012;28;20029;-75
2024/01/22 07:55:21;;;;;;;3.17;2.58;;;;;;;3.79;99.06;98102.91;5059763;28;20040;-75
2024/01/22 07:57:46;;;;;;;4.25;2.30;;;;;;;3.80;99.66;98104.47;5062123;28;20025;-75
2024/01/22 08:00:12;;;;;;;6.43;1.98;;;;;;;3.78;99.52;98103.91;5064671;28;20555;-75
2024/01/22 08:02:41;;;;;;;6.43;2.85;;;;;;;3.84;98.85;98112.78;5062532;28;20044;-75
2024/01/22 08:05:07;;;;;;;4.35;2.33;;;;;;;3.81;99.06;98118.50;5064331;28;20144;-75
2024/01/22 08:07:33;;;;;;;3.42;2.65;;;;;;;3.82;99.12;98117.47;5061312;28;20024;-75
2024/01/22 08:09:59;;;;;;;5.88;2.72;;;;;;;3.86;99.84;98131.84;5061396;28;20041;-75
2024/01/22 08:12:24;;;;;;;7.20;2.90;;;;;;;3.92;98.88;98117.75;5062907;28;20123;-75
2024/01/22 08:14:49;;;;;;;2.58;2.38;;;;;;;3.90;98.98;98105.78;5056822;28;20037;-75
2024/01/22 08:17:14;;;;;;;3.78;1.88;;;;;;;3.98;99.27;98108.09;5063020;28;20029;-75
2024/01/22 08:19:40;;;;;;;5.22;2.55;;;;;;;3.99;98.89;98104.44;5062668;28;20438;-75
2024/01/22 08:22:05;;;;;;;3.65;2.25;;;;;;;4.00;99.21;98091.00;5066489;28;20439;-75
2024/01/22 08:24:31;;;;;;;2.88;2.20;;;;;;;4.01;98.93;98105.84;5063378;28;20032;-75
2024/01/22 08:26:56;;;;;;;5.88;2.47;;;;;;;4.02;99.04;98101.38;5060435;28;20451;-75
2024/01/22 08:29:21;;;;;;;5.28;2.47;;;;;;;4.01;98.42;98116.41;5069206;28;20389;-75
2024/01/22 08:31:48;;;;;;;4.13;2.75;;;;;;;4.03;99.15;98118.81;5061907;28;20045;-75
2024/01/22 08:34:13;;;;;;;4.00;2.25;;;;;;;4.07;98.98;98106.75;5064724;28;20029;-75
2024/01/22 08:36:39;;;;;;;4.30;2.72;;;;;;;4.10;99.77;98099.22;5060953;28;20129;-75
2024/01/22 08:39:04;;;;;;;4.22;2.28;;;;;;;4.08;99.53;98113.66;5070307;28;20060;-77
2024/01/22 08:41:30;;;;;;;6.47;2.55;;;;;;;4.06;99.96;98102.53;5065836;28;20044;-75
2024/01/22 08:43:57;;;;;;;4.18;2.30;;;;;;;4.08;99.52;98100.47;5064413;28;20122;-75
2024/01/22 08:46:23;;;;;;;4.20;2.78;;;;;;;4.10;99.86;98104.50;5051662;28;20029;-75
2024/01/22 08:48:48;;;;;;;5.03;2.83;;;;;;;4.10;99.60;98107.13;5043577;28;20029;-75
2024/01/22 08:51:14;;;;;;;4.05;2.05;;;;;;;4.06;99.84;98095.41;5054944;28;20075;-74
2024/01/22 08:53:40;;;;;;;2.83;1.83;;;;;;;4.08;99.22;98119.75;5059238;28;20450;-75
2024/01/22 08:56:05;;;;;;;4.90;2.92;;;;;;;4.07;99.82;98099.66;5062208;28;20592;-75
2024/01/22 08:58:31;;;;;;;5.88;2.38;;;;;;;4.08;99.83;98097.81;5057460;28;20075;-75
2024/01/22 09:00:56;;;;;;;5.47;2.00;;;;;;;4.05;99.69;98114.91;5052538;28;20029;-75
2024/01/22 09:03:24;;;;;;;3.22;2.50;;;;;;;4.01;99.35;98097.91;5057896;28;20043;-75
2024/01/22 09:05:49;;;;;;;7.97;2.70;;;;;;;4.07;99.18;98081.16;5056302;28;20028;-75
2024/01/22 09:08:15;;;;;;;4.88;2.53;;;;;;;4.07;99.58;98086.44;5064568;28;20032;-75
2024/01/22 09:10:41;;;;;;;2.17;1.95;;;;;;;4.09;99.70;98108.16;5052611;28;20056;-75
2024/01/22 09:13:07;;;;;;;4.53;3.17;;;;;;;4.04;99.09;98092.16;5063866;28;20033;-75
2024/01/22 09:15:32;;;;;;;4.00;3.13;;;;;;;4.05;99.99;98096.44;5059502;28;20473;-75
2024/01/22 09:17:58;;;;;;;4.53;3.33;;;;;;;4.13;99.25;98104.03;5066047;28;21059;-75
2024/01/22 09:20:23;;;;;;;5.88;2.78;;;;;;;4.14;99.44;98097.72;5061611;28;20469;-75
2024/01/22 09:22:49;;;;;;;3.58;2.50;;;;;;;4.23;98.28;98106.94;5058072;28;20393;-75
2024/01/22 09:25:14;;;;;;;5.85;2.38;;;;;;;4.24;98.38;98108.53;5064495;28;20044;-75
2024/01/22 09:27:40;;;;;;;4.05;2.80;;;;;;;4.27;98.60;98107.28;5058104;28;20036;-75
2024/01/22 09:30:06;;;;;;;4.35;2.95;;;;;;;4.28;98.62;98106.28;5063474;28;20451;-75
2024/01/22 09:32:31;;;;;;;5.10;2.85;;;;;;;4.22;98.27;98102.69;5065328;28;20041;-75
2024/01/22 09:34:57;;;;;;;6.25;3.38;;;;;;;4.30;97.66;98098.91;5047012;28;20033;-75
2024/01/22 09:37:22;;;;;;;3.85;2.28;;;;;;;4.36;98.64;98101.47;5060428;28;20028;-75
2024/01/22 09:39:49;;;;;;;8.93;3.35;;;;;;;4.36;98.06;98113.84;5055559;28;20029;-75
2024/01/22 09:42:14;;;;;;;3.55;2.35;;;;;;;4.30;97.96;98102.34;5058842;28;20053;-75
2024/01/22 09:44:45;;;;;;;3.63;2.45;;;;;;;4.36;98.02;98100.66;5066274;28;20028;-75
2024/01/22 09:47:11;;;;;;;2.63;2.00;;;;;;;4.37;98.18;98102.25;5061073;28;20146;-75
2024/01/22 09:49:37;;;;;;;3.10;2.35;;;;;;;4.39;97.75;98101.00;5048190;28;20037;-75
2024/01/22 09:52:03;;;;;;;3.05;1.75;;;;;;;4.39;97.82;98113.41;5071946;28;20042;-75
2024/01/22 09:54:30;;;;;;;4.93;2.15;;;;;;;4.42;97.34;98100.53;5066307;28;20047;-75
2024/01/22 09:56:57;;;;;;;3.30;2.10;;;;;;;4.44;97.98;98106.41;5066846;28;20032;-75
2024/01/22 09:59:24;;;;;;;8.05;2.00;;;;;;;4.45;98.17;98096.66;5068599;28;20016;-75
2024/01/22 10:01:51;;;;;;;3.05;2.28;;;;;;;4.52;97.41;98094.72;5068851;28;20103;-75
2024/01/22 10:04:17;;;;;;;1.90;1.77;;;;;;;4.48;98.34;98080.31;5054535;28;20040;-75
2024/01/22 10:06:44;;;;;;;4.93;2.35;;;;;;;4.47;97.60;98091.94;5062544;28;20549;-75
2024/01/22 10:09:14;;;;;;;3.40;2.17;;;;;;;4.50;98.39;98086.19;5064176;28;20090;-74
2024/01/22 10:11:41;;;;;;;3.80;2.30;;;;;;;4.49;98.62;98095.97;5062440;28;20039;-75
2024/01/22 10:14:06;;;;;;;5.35;2.08;;;;;;;4.48;97.71;98083.78;5066891;28;20024;-75
2024/01/22 10:16:32;;;;;;;4.05;1.95;;;;;;;4.46;97.59;98085.84;5071379;28;20035;-75
2024/01/22 10:19:06;;;;;;;5.88;2.22;;;;;;;4.40;98.11;98093.88;5066952;28;20428;-75
2024/01/22 10:21:33;;;;;;;5.07;2.65;;;;;;;4.49;98.99;98090.69;5065924;28;20031;-75
2024/01/22 10:24:00;;;;;;;2.67;1.95;;;;;;;4.53;98.68;98099.75;5073418;28;20074;-75
2024/01/22 10:26:26;;;;;;;3.30;2.08;;;;;;;4.54;98.12;98084.72;5073652;28;20033;-75
2024/01/22 10:28:52;;;;;;;1.60;1.50;;;;;;;4.54;98.95;98063.59;5073614;28;20111;-75
2024/01/22 10:31:18;;;;;;;2.20;1.77;;;;;;;4.56;99.24;98075.50;5071358;28;20047;-75
2024/01/22 10:33:45;;;;;;;2.05;1.80;;;;;;;4.52;99.02;98071.72;5068660;28;20032;-75
2024/01/22 10:36:21;;;;;;;3.10;2.10;;;;;;;4.61;98.87;98064.25;5068165;28;20543;-75
2024/01/22 10:38:48;;;;;;;1.92;1.63;;;;;;;4.62;98.75;98073.00;5053126;28;20021;-75
2024/01/22 10:41:22;;;;;;;2.40;1.70;;;;;;;4.65;98.73;98056.69;5061649;28;20436;-75
2024/01/22 10:43:49;;;;;;;3.38;1.80;;;;;;;4.62;98.60;98049.19;5061296;28;20032;-75
2024/01/22 10:46:16;;;;;;;5.45;2.00;;;;;;;4.73;97.81;98040.47;5065907;28;20030;-75
2024/01/22 10:48:43;;;;;;;3.95;2.22;;;;;;;4.76;98.17;98045.31;5068723;28;20043;-75
2024/01/22 10:51:12;;;;;;;5.03;2.28;;;;;;;4.78;98.19;98017.63;5071362;28;20032;-75
2024/01/22 10:53:38;;;;;;;3.78;1.92;;;;;;;4.85;97.21;98030.72;5067908;28;20024;-75
2024/01/22 10:56:18;;;;;;;5.05;1.85;;;;;;;4.85;97.88;98033.34;5063435;28;20508;-75
2024/01/22 10:58:45;;;;;;;4.90;1.70;;;;;;;4.87;97.54;98032.06;5059582;28;20012;-75
2024/01/22 11:01:24;;;;;;;7.43;2.25;;;;;;;4.91;97.70;98041.16;5070379;28;20056;-75
2024/01/22 11:03:52;;;;;;;5.03;3.25;;;;;;;4.94;96.93;98029.28;5068708;28;20056;-75
2024/01/22 11:06:23;;;;;;;8.27;2.30;;;;;;;4.96;96.85;98019.28;5058773;28;20037;-75
2024/01/22 11:08:53;;;;;;;4.35;2.35;;;;;;;5.01;97.17;98016.75;5051790;28;20025;-75
2024/01/22 11:11:25;;;;;;;2.60;2.40;;;;;;;5.03;96.52;98001.47;5039240;28;20385;-75
2024/01/22 11:13:52;;;;;;;3.80;2.30;;;;;;;5.03;96.24;98007.56;5055953;28;20043;-75
2024/01/22 11:16:21;;;;;;;4.47;2.50;;;;;;;5.07;96.27;97984.09;5064955;28;20041;-75
2024/01/22 11:19:01;;;;;;;2.38;2.17;;;;;;;5.06;95.53;97980.66;5063112;28;20028;-75
2024/01/22 11:21:37;;;;;;;3.42;2.38;;;;;;;5.08;96.00;97980.41;5051895;28;20033;-75
2024/01/22 11:24:05;;;;;;;6.15;2.30;;;;;;;5.07;96.71;97999.94;5065797;28;20036;-75
2024/01/22 11:26:30;;;;;;;4.03;2.30;;;;;;;5.11;95.57;97995.81;5065261;28;20398;-75
2024/01/22 11:29:09;;;;;;;3.78;2.20;;;;;;;5.10;96.08;97997.66;5051828;28;20037;-75
2024/01/22 11:31:35;;;;;;;5.38;2.38;;;;;;;5.12;95.37;97998.22;5052896;28;20501;-75
2024/01/22 11:34:02;;;;;;;2.47;1.75;;;;;;;5.15;95.25;97995.13;5064759;28;20039;-75
2024/01/22 11:36:49;;;;;;;2.42;2.17;;;;;;;5.13;95.25;97993.75;5054998;28;20047;-76